createdAt,value
2022-08-14T00:00:17.625Z,3.47
2022-08-14T00:02:21.405Z,3.63
2022-08-14T00:04:34.644Z,3.60
2022-08-14T00:06:37.956Z,3.37
2022-08-14T00:08:42.053Z,3.63
2022-08-14T00:10:49.803Z,3.10
2022-08-14T00:12:56.783Z,3.40
2022-08-14T00:14:59.004Z,3.57
2022-08-14T00:17:04.992Z,3.13
2022-08-14T00:19:19.245Z,3.30
2022-08-14T00:21:28.150Z,3.10
2022-08-14T00:23:30.877Z,3.37
2022-08-14T00:25:42.249Z,3.30
2022-08-14T00:27:44.939Z,3.70
2022-08-14T00:29:51.054Z,3.13
2022-08-14T00:31:55.210Z,3.30
2022-08-14T00:33:59.999Z,3.70
2022-08-14T00:36:35.325Z,3.60
2022-08-14T00:38:40.905Z,3.40
2022-08-14T00:40:49.589Z,3.50
2022-08-14T00:42:56.054Z,3.57
2022-08-14T00:44:58.494Z,3.20
2022-08-14T00:47:02.489Z,3.40
2022-08-14T00:49:05.106Z,3.23
2022-08-14T00:51:09.570Z,3.30
2022-08-14T00:53:11.367Z,3.30
2022-08-14T00:55:15.690Z,3.60
2022-08-14T00:57:19.090Z,3.53
2022-08-14T00:59:23.241Z,4.00
2022-08-14T01:01:26.441Z,3.57
2022-08-14T01:03:42.205Z,3.50
2022-08-14T01:05:52.021Z,3.77
2022-08-14T01:07:58.645Z,3.47
2022-08-14T01:10:05.190Z,3.73
2022-08-14T01:12:09.663Z,3.63
2022-08-14T01:14:25.298Z,3.30
2022-08-14T01:16:33.184Z,3.50
2022-08-14T01:18:57.836Z,3.13
2022-08-14T01:21:06.293Z,3.80
2022-08-14T01:23:16.260Z,3.57
2022-08-14T01:25:20.886Z,3.77
2022-08-14T01:27:25.119Z,3.30
2022-08-14T01:29:58.103Z,3.57
2022-08-14T01:31:52.261Z,3.60
2022-08-14T01:33:59.710Z,4.17
2022-08-14T01:36:22.771Z,3.80
2022-08-14T01:38:26.442Z,3.73
2022-08-14T01:40:36.296Z,3.70
2022-08-14T01:42:42.750Z,3.97
2022-08-14T01:44:54.298Z,3.80
2022-08-14T01:47:01.846Z,4.10
2022-08-14T01:49:10.099Z,4.00
2022-08-14T01:51:18.324Z,4.10
2022-08-14T01:53:21.998Z,4.07
2022-08-14T01:55:32.497Z,4.37
2022-08-14T01:58:00.938Z,4.40
2022-08-14T01:59:59.424Z,4.30
2022-08-14T02:02:07.353Z,4.13
2022-08-14T02:04:20.698Z,4.17
2022-08-14T02:06:40.967Z,4.20
2022-08-14T02:08:52.569Z,4.20
2022-08-14T02:11:20.307Z,4.10
2022-08-14T02:13:22.215Z,4.00
2022-08-14T02:15:25.051Z,4.30
2022-08-14T02:17:30.615Z,4.53
2022-08-14T02:19:35.614Z,4.40
2022-08-14T02:21:43.174Z,4.17
2022-08-14T02:23:53.449Z,4.20
2022-08-14T02:25:57.189Z,4.00
2022-08-14T02:28:24.384Z,4.27
2022-08-14T02:30:22.222Z,4.20
2022-08-14T02:32:30.581Z,4.10
2022-08-14T02:34:38.463Z,4.47
2022-08-14T02:37:06.188Z,4.30
2022-08-14T02:39:07.902Z,4.40
2022-08-14T02:41:13.117Z,4.10
2022-08-14T02:43:15.246Z,4.57
2022-08-14T02:45:17.715Z,4.50
2022-08-14T02:47:20.982Z,5.20
2022-08-14T02:49:26.570Z,4.57
2022-08-14T02:51:37.073Z,4.73
2022-08-14T02:53:42.344Z,4.87
2022-08-14T02:55:44.354Z,4.40
2022-08-14T02:57:51.938Z,4.53
2022-08-14T03:00:06.707Z,4.53
2022-08-14T03:02:48.882Z,4.80
2022-08-14T03:04:34.769Z,4.60
2022-08-14T03:06:57.517Z,4.47
2022-08-14T03:09:01.195Z,4.10
2022-08-14T03:11:07.614Z,4.60
2022-08-14T03:13:19.032Z,4.40
2022-08-14T03:15:21.713Z,4.03
2022-08-14T03:17:24.135Z,4.00
2022-08-14T03:19:27.014Z,4.60
2022-08-14T03:21:31.393Z,4.23
2022-08-14T03:23:38.729Z,4.47
2022-08-14T03:25:40.981Z,4.87
2022-08-14T03:27:48.312Z,4.30
2022-08-14T03:29:59.955Z,4.40
2022-08-14T03:32:10.133Z,4.60
2022-08-14T03:34:24.596Z,4.63
2022-08-14T03:37:38.907Z,4.50
2022-08-14T03:39:12.936Z,4.83
2022-08-14T03:41:23.585Z,4.60
2022-08-14T03:43:25.561Z,5.10
2022-08-14T03:45:34.863Z,4.70
2022-08-14T03:47:46.705Z,4.80
2022-08-14T03:50:00.498Z,4.90
2022-08-14T03:52:17.822Z,5.10
2022-08-14T03:54:26.657Z,4.47
2022-08-14T03:56:33.138Z,5.20
2022-08-14T03:58:38.062Z,4.93
2022-08-14T04:00:44.717Z,4.93
2022-08-14T04:02:53.394Z,4.70
2022-08-14T04:04:55.317Z,4.90
2022-08-14T04:07:10.745Z,5.13
2022-08-14T04:09:12.689Z,4.57
2022-08-14T04:11:15.336Z,5.40
2022-08-14T04:13:20.081Z,4.97
2022-08-14T04:15:27.417Z,4.90
2022-08-14T04:17:33.479Z,5.10
2022-08-14T04:19:37.469Z,5.03
2022-08-14T04:22:03.136Z,4.80
2022-08-14T04:24:02.119Z,4.90
2022-08-14T04:26:08.328Z,5.10
2022-08-14T04:29:06.835Z,4.83
2022-08-14T04:30:39.273Z,5.37
2022-08-14T04:32:59.157Z,4.60
2022-08-14T04:35:07.750Z,4.93
2022-08-14T04:37:30.846Z,4.93
2022-08-14T04:39:57.366Z,4.80
2022-08-14T04:42:18.129Z,4.80
2022-08-14T04:44:36.201Z,4.80
2022-08-14T04:46:59.055Z,4.83
2022-08-14T04:49:08.126Z,5.27
2022-08-14T04:51:12.358Z,4.40
2022-08-14T04:53:23.180Z,4.57
2022-08-14T04:55:29.647Z,4.80
2022-08-14T04:57:33.311Z,4.80
2022-08-14T04:59:35.361Z,5.50
2022-08-14T05:01:40.198Z,5.10
2022-08-14T05:03:42.445Z,4.87
2022-08-14T05:05:44.154Z,4.97
2022-08-14T05:08:01.158Z,4.60
2022-08-14T05:10:13.309Z,4.70
2022-08-14T05:13:11.866Z,4.77
2022-08-14T05:14:53.566Z,4.67
2022-08-14T05:17:02.000Z,4.30
2022-08-14T05:19:18.850Z,4.80
2022-08-14T05:21:59.334Z,4.67
2022-08-14T05:23:51.906Z,4.83
2022-08-14T05:26:01.525Z,4.47
2022-08-14T05:28:12.371Z,4.97
2022-08-14T05:30:20.451Z,4.80
2022-08-14T05:32:23.536Z,4.60
2022-08-14T05:34:31.993Z,4.70
2022-08-14T05:36:34.732Z,4.70
2022-08-14T05:38:44.498Z,4.57
2022-08-14T05:40:53.827Z,4.30
2022-08-14T05:42:55.955Z,4.60
2022-08-14T05:44:58.488Z,4.50
2022-08-14T05:47:01.998Z,4.30
2022-08-14T05:49:08.410Z,4.20
2022-08-14T05:51:16.995Z,4.17
2022-08-14T05:53:18.707Z,4.23
2022-08-14T05:55:25.939Z,4.80
2022-08-14T05:57:29.870Z,5.00
2022-08-14T05:59:38.636Z,5.20
2022-08-14T06:01:41.226Z,4.70
2022-08-14T06:03:42.913Z,5.20
2022-08-14T06:05:54.489Z,5.13
2022-08-14T06:08:00.742Z,5.10
2022-08-14T06:10:04.087Z,5.20
2022-08-14T06:12:06.586Z,4.97
2022-08-14T06:14:20.637Z,4.73
2022-08-14T06:16:23.488Z,5.30
2022-08-14T06:18:26.915Z,5.27
2022-08-14T06:20:37.567Z,5.20
2022-08-14T06:22:43.091Z,5.30
2022-08-14T06:24:49.442Z,5.10
2022-08-14T06:26:54.152Z,5.03
2022-08-14T06:29:05.556Z,5.47
2022-08-14T06:31:07.406Z,5.23
2022-08-14T06:33:09.111Z,5.30
2022-08-14T06:35:16.927Z,4.97
2022-08-14T06:37:19.796Z,5.40
2022-08-14T06:39:37.586Z,5.33
2022-08-14T06:41:57.572Z,5.23
2022-08-14T06:44:00.545Z,5.40
2022-08-14T06:46:04.147Z,5.30
2022-08-14T06:48:19.262Z,5.43
2022-08-14T06:50:28.114Z,5.33
2022-08-14T06:52:30.518Z,5.70
2022-08-14T06:54:32.374Z,5.27
2022-08-14T06:56:40.121Z,5.80
2022-08-14T06:58:46.282Z,5.77
2022-08-14T07:01:07.267Z,5.30
2022-08-14T07:03:30.343Z,5.77
2022-08-14T07:05:55.318Z,5.60
2022-08-14T07:08:00.528Z,5.60
2022-08-14T07:10:04.797Z,5.47
2022-08-14T07:12:06.743Z,5.60
2022-08-14T07:14:09.641Z,5.60
2022-08-14T07:16:13.045Z,5.60
2022-08-14T07:18:19.105Z,5.93
2022-08-14T07:20:31.442Z,5.30
2022-08-14T07:22:49.847Z,5.40
2022-08-14T07:24:51.959Z,5.83
2022-08-14T07:26:53.867Z,5.60
2022-08-14T07:28:55.741Z,5.60
2022-08-14T07:31:04.646Z,6.00
2022-08-14T07:33:08.393Z,5.70
2022-08-14T07:35:13.153Z,5.53
2022-08-14T07:37:15.167Z,5.63
2022-08-14T07:39:17.184Z,5.80
2022-08-14T07:41:35.577Z,5.37
2022-08-14T07:43:37.818Z,5.53
2022-08-14T07:45:43.208Z,5.80
2022-08-14T07:47:45.090Z,5.20
2022-08-14T07:50:04.826Z,4.80
2022-08-14T07:52:07.367Z,4.87
2022-08-14T07:54:11.181Z,4.77
2022-08-14T07:56:21.821Z,4.90
2022-08-14T07:58:38.662Z,5.30
2022-08-14T08:00:56.760Z,4.93
2022-08-14T08:03:00.347Z,5.23
2022-08-14T08:05:02.739Z,5.03
2022-08-14T08:07:05.562Z,5.10
2022-08-14T08:09:08.911Z,5.10
2022-08-14T08:11:14.834Z,5.00
2022-08-14T08:13:24.058Z,5.37
2022-08-14T08:15:33.075Z,5.00
2022-08-14T08:17:38.990Z,4.80
2022-08-14T08:19:41.089Z,5.20
2022-08-14T08:21:43.748Z,4.73
2022-08-14T08:23:51.493Z,5.00
2022-08-14T08:25:53.361Z,4.70
2022-08-14T08:27:58.146Z,4.67
2022-08-14T08:30:10.198Z,4.70
2022-08-14T08:32:13.337Z,5.00
2022-08-14T08:34:18.231Z,4.63
2022-08-14T08:36:20.575Z,4.67
2022-08-14T08:39:17.342Z,4.70
2022-08-14T08:40:49.209Z,4.80
2022-08-14T08:42:51.579Z,4.57
2022-08-14T08:45:02.936Z,4.57
2022-08-14T08:47:07.830Z,4.30
2022-08-14T08:49:12.193Z,4.47
2022-08-14T08:51:25.083Z,4.60
2022-08-14T08:53:36.455Z,4.23
2022-08-14T08:55:42.373Z,4.10
2022-08-14T08:57:46.849Z,3.97
2022-08-14T08:59:54.985Z,4.00
2022-08-14T09:02:09.315Z,3.95
2022-08-14T09:04:17.279Z,3.50
2022-08-14T09:07:00.768Z,3.58
2022-08-14T09:08:46.137Z,3.90
2022-08-14T09:10:48.217Z,3.78
2022-08-14T09:12:53.542Z,3.75
2022-08-14T09:14:57.142Z,3.90
2022-08-14T09:17:03.759Z,3.83
2022-08-14T09:19:05.956Z,3.92
2022-08-14T09:21:08.427Z,3.75
2022-08-14T09:23:11.427Z,3.97
2022-08-14T09:25:19.636Z,3.58
2022-08-14T09:27:22.536Z,3.30
2022-08-14T09:29:28.996Z,3.40
2022-08-14T09:31:42.969Z,3.20
2022-08-14T09:34:35.794Z,2.60
2022-08-14T09:37:13.598Z,2.70
2022-08-14T09:39:23.780Z,2.38
2022-08-14T09:42:20.352Z,2.70
2022-08-14T09:44:30.617Z,2.75
2022-08-14T09:46:35.978Z,2.50
2022-08-14T09:48:40.903Z,2.35
2022-08-14T09:50:53.047Z,2.28
2022-08-14T09:52:59.523Z,2.58
2022-08-14T09:55:02.674Z,2.38
2022-08-14T09:57:06.798Z,2.80
2022-08-14T09:59:14.931Z,2.40
2022-08-14T10:01:20.109Z,2.60
2022-08-14T10:03:33.985Z,2.90
2022-08-14T10:05:39.627Z,2.85
2022-08-14T10:07:53.552Z,2.75
2022-08-14T10:10:02.243Z,2.70
2022-08-14T10:12:06.810Z,2.47
2022-08-14T10:14:34.673Z,2.38
2022-08-14T10:16:43.453Z,2.50
2022-08-14T10:18:52.037Z,2.40
2022-08-14T10:20:58.367Z,2.50
2022-08-14T10:23:19.812Z,2.70
2022-08-14T10:25:24.106Z,2.50
2022-08-14T10:27:27.008Z,2.63
2022-08-14T10:29:34.842Z,2.35
2022-08-14T10:31:44.876Z,2.58
2022-08-14T10:34:12.929Z,2.50
2022-08-14T10:36:40.706Z,2.35
2022-08-14T10:38:51.824Z,2.40
2022-08-14T10:40:59.305Z,2.47
2022-08-14T10:43:02.651Z,2.17
2022-08-14T10:45:46.224Z,2.20
2022-08-14T10:48:07.061Z,2.05
2022-08-14T10:50:15.006Z,2.10
2022-08-14T10:52:23.548Z,2.22
2022-08-14T10:54:39.930Z,1.95
2022-08-14T10:56:43.370Z,2.20
2022-08-14T10:58:45.562Z,2.15
2022-08-14T11:00:57.862Z,2.28
2022-08-14T11:03:02.663Z,2.05
2022-08-14T11:05:18.212Z,2.70
2022-08-14T11:07:21.636Z,2.17
2022-08-14T11:09:23.736Z,2.13
2022-08-14T11:11:35.755Z,2.17
2022-08-14T11:13:43.977Z,2.65
2022-08-14T11:15:46.596Z,2.22
2022-08-14T11:17:50.320Z,2.20
2022-08-14T11:19:58.674Z,2.20
2022-08-14T11:22:02.010Z,2.13
2022-08-14T11:24:54.331Z,2.28
2022-08-14T11:26:30.511Z,2.38
2022-08-14T11:28:46.906Z,2.30
2022-08-14T11:30:54.098Z,2.45
2022-08-14T11:33:00.394Z,2.60
2022-08-14T11:35:05.838Z,2.40
2022-08-14T11:37:18.158Z,2.38
2022-08-14T11:39:34.299Z,2.20
2022-08-14T11:41:43.136Z,2.05
2022-08-14T11:43:58.709Z,2.22
2022-08-14T11:46:03.562Z,2.30
2022-08-14T11:49:02.891Z,2.58
2022-08-14T11:50:44.707Z,2.63
2022-08-14T11:52:47.323Z,2.10
2022-08-14T11:54:58.841Z,2.28
2022-08-14T11:57:00.838Z,2.28
2022-08-14T11:59:02.699Z,2.70
2022-08-14T12:01:07.845Z,2.30
2022-08-14T12:03:15.156Z,2.45
2022-08-14T12:05:32.969Z,2.47
2022-08-14T12:07:49.192Z,2.45
2022-08-14T12:09:56.404Z,2.40
2022-08-14T12:12:35.305Z,2.45
2022-08-14T12:15:00.291Z,2.40
2022-08-14T12:17:12.106Z,2.55
2022-08-14T12:19:16.083Z,2.33
2022-08-14T12:21:23.906Z,2.40
2022-08-14T12:23:31.252Z,2.30
2022-08-14T12:25:35.025Z,2.30
2022-08-14T12:27:53.740Z,2.22
2022-08-14T12:29:57.201Z,2.20
2022-08-14T12:32:08.995Z,2.28
2022-08-14T12:34:20.583Z,2.30
2022-08-14T12:36:25.293Z,2.50
2022-08-14T12:38:38.648Z,2.20
2022-08-14T12:40:51.216Z,2.70
2022-08-14T12:42:56.653Z,2.65
2022-08-14T12:45:04.058Z,2.45
2022-08-14T12:47:15.290Z,2.53
2022-08-14T12:49:18.796Z,2.35
2022-08-14T12:51:25.166Z,2.30
2022-08-14T12:53:38.346Z,2.40
2022-08-14T12:56:18.594Z,2.58
2022-08-14T12:58:34.958Z,2.20
2022-08-14T13:00:28.379Z,2.83
2022-08-14T13:02:38.772Z,3.05
2022-08-14T13:04:48.919Z,2.70
2022-08-14T13:06:52.942Z,2.53
2022-08-14T13:09:00.266Z,2.53
2022-08-14T13:11:06.317Z,2.22
2022-08-14T13:13:15.394Z,2.53
2022-08-14T13:15:19.424Z,2.80
2022-08-14T13:17:26.963Z,2.75
2022-08-14T13:19:30.166Z,2.58
2022-08-14T13:21:58.942Z,2.40
2022-08-14T13:23:56.313Z,2.55
2022-08-14T13:26:02.751Z,2.92
2022-08-14T13:28:05.101Z,2.58
2022-08-14T13:30:21.220Z,2.60
2022-08-14T13:32:25.861Z,2.60
2022-08-14T13:34:29.200Z,2.47
2022-08-14T13:36:54.543Z,2.50
2022-08-14T13:38:53.998Z,2.50
2022-08-14T13:40:59.031Z,2.33
2022-08-14T13:43:01.960Z,2.30
2022-08-14T13:45:06.396Z,2.60
2022-08-14T13:47:15.939Z,2.25
2022-08-14T13:49:19.238Z,2.60
2022-08-14T13:51:26.057Z,2.28
2022-08-14T13:53:37.842Z,2.30
2022-08-14T13:55:43.549Z,2.35
2022-08-14T13:57:49.601Z,2.25
2022-08-14T13:59:53.916Z,2.38
2022-08-14T14:02:05.775Z,2.35
2022-08-14T14:04:18.829Z,2.40
2022-08-14T14:06:24.431Z,2.42
2022-08-14T14:08:46.065Z,2.50
2022-08-14T14:10:49.902Z,2.10
2022-08-14T14:12:56.615Z,2.22
2022-08-14T14:15:05.383Z,2.20
2022-08-14T14:17:10.153Z,2.17
2022-08-14T14:19:17.151Z,2.28
2022-08-14T14:21:22.598Z,2.33
2022-08-14T14:23:28.170Z,2.30
2022-08-14T14:25:43.224Z,2.25
2022-08-14T14:27:53.438Z,6.05
2022-08-14T14:29:59.163Z,3.20
2022-08-14T14:32:02.252Z,2.30
2022-08-14T14:34:07.535Z,2.25
2022-08-14T14:36:28.373Z,2.00
2022-08-14T14:38:33.768Z,2.22
2022-08-14T14:40:54.023Z,1.83
2022-08-14T14:43:03.991Z,2.20
2022-08-14T14:45:16.425Z,1.67
2022-08-14T14:47:23.543Z,2.30
2022-08-14T14:49:42.212Z,1.98
2022-08-14T14:51:52.561Z,1.98
2022-08-14T14:53:57.624Z,2.00
2022-08-14T14:56:50.221Z,1.85
2022-08-14T14:58:26.070Z,2.13
2022-08-14T15:00:31.036Z,2.10
2022-08-14T15:02:38.068Z,1.83
2022-08-14T15:04:43.514Z,2.20
2022-08-14T15:06:53.062Z,2.03
2022-08-14T15:08:58.164Z,2.00
2022-08-14T15:11:01.801Z,2.10
2022-08-14T15:13:05.342Z,2.00
2022-08-14T15:15:12.432Z,2.08
2022-08-14T15:17:14.243Z,2.00
2022-08-14T15:19:17.538Z,2.15
2022-08-14T15:21:21.782Z,1.85
2022-08-14T15:23:32.218Z,2.00
2022-08-14T15:25:53.209Z,2.10
2022-08-14T15:27:55.298Z,2.05
2022-08-14T15:29:59.992Z,2.10
2022-08-14T15:32:08.705Z,1.83
2022-08-14T15:34:43.645Z,2.08
2022-08-14T15:36:37.726Z,2.17
2022-08-14T15:38:42.538Z,1.80
2022-08-14T15:40:44.467Z,2.13
2022-08-14T15:42:53.530Z,3.60
2022-08-14T15:45:01.261Z,2.50
2022-08-14T15:47:06.985Z,1.90
2022-08-14T15:49:12.499Z,1.90
2022-08-14T15:51:16.665Z,1.70
2022-08-14T15:53:22.212Z,1.90
2022-08-14T15:55:26.429Z,1.90
2022-08-14T15:57:29.367Z,1.70
2022-08-14T15:59:54.059Z,1.60
2022-08-14T16:01:57.169Z,1.73
2022-08-14T16:03:59.303Z,1.60
2022-08-14T16:06:01.134Z,1.70
2022-08-14T16:08:29.235Z,1.70
2022-08-14T16:10:31.004Z,1.70
2022-08-14T16:12:46.087Z,1.60
2022-08-14T16:14:49.622Z,1.65
2022-08-14T16:16:56.776Z,1.63
2022-08-14T16:19:07.198Z,1.60
2022-08-14T16:21:16.307Z,1.77
2022-08-14T16:23:20.906Z,1.45
2022-08-14T16:25:34.389Z,1.52
2022-08-14T16:27:40.965Z,1.77
2022-08-14T16:29:43.309Z,1.60
2022-08-14T16:31:49.192Z,1.40
2022-08-14T16:33:58.784Z,1.45
2022-08-14T16:36:04.386Z,1.83
2022-08-14T16:38:46.356Z,1.42
2022-08-14T16:41:14.957Z,1.63
2022-08-14T16:43:18.493Z,1.80
2022-08-14T16:45:25.050Z,1.60
2022-08-14T16:47:32.192Z,1.40
2022-08-14T16:50:03.365Z,1.55
2022-08-14T16:52:10.155Z,1.20
2022-08-14T16:54:35.231Z,1.60
2022-08-14T16:56:47.737Z,1.42
2022-08-14T16:59:02.679Z,1.63
2022-08-14T17:01:24.843Z,1.50
2022-08-14T17:03:27.517Z,1.48
2022-08-14T17:05:43.110Z,1.60
2022-08-14T17:08:31.642Z,1.30
2022-08-14T17:10:27.819Z,1.77
2022-08-14T17:12:34.983Z,1.40
2022-08-14T17:15:10.488Z,1.40
2022-08-14T17:17:12.641Z,1.60
2022-08-14T17:19:19.606Z,1.52
2022-08-14T17:21:31.834Z,1.50
2022-08-14T17:23:35.843Z,1.40
2022-08-14T17:25:38.422Z,1.40
2022-08-14T17:27:42.537Z,1.42
2022-08-14T17:29:57.298Z,1.50
2022-08-14T17:32:22.441Z,1.35
2022-08-14T17:34:50.388Z,1.35
2022-08-14T17:36:56.335Z,1.35
2022-08-14T17:39:13.350Z,1.50
2022-08-14T17:41:23.352Z,1.50
2022-08-14T17:43:41.361Z,1.60
2022-08-14T17:45:45.361Z,1.40
2022-08-14T17:47:50.152Z,1.33
2022-08-14T17:49:53.841Z,1.45
2022-08-14T17:52:16.571Z,1.40
2022-08-14T17:54:22.602Z,1.50
2022-08-14T17:56:31.805Z,1.02
2022-08-14T17:58:41.795Z,1.17
2022-08-14T18:00:44.581Z,1.30
2022-08-14T18:02:51.294Z,1.15
2022-08-14T18:05:03.090Z,1.20
2022-08-14T18:07:16.572Z,1.92
2022-08-14T18:09:30.389Z,1.30
2022-08-14T18:11:45.629Z,1.30
2022-08-14T18:13:52.729Z,1.38
2022-08-14T18:15:57.819Z,1.40
2022-08-14T18:18:01.670Z,1.33
2022-08-14T18:20:15.863Z,1.40
2022-08-14T18:22:39.374Z,1.50
2022-08-14T18:24:42.907Z,1.25
2022-08-14T18:26:45.616Z,1.55
2022-08-14T18:28:52.622Z,1.50
2022-08-14T18:31:20.589Z,1.60
2022-08-14T18:33:22.700Z,1.40
2022-08-14T18:35:45.362Z,1.50
2022-08-14T18:37:55.887Z,1.40
2022-08-14T18:40:18.905Z,1.40
2022-08-14T18:42:23.761Z,1.50
2022-08-14T18:44:52.650Z,1.40
2022-08-14T18:47:10.203Z,1.35
2022-08-14T18:49:17.057Z,1.50
2022-08-14T18:51:45.190Z,1.50
2022-08-14T18:54:06.236Z,1.30
2022-08-14T18:56:18.411Z,1.30
2022-08-14T18:58:49.171Z,1.88
2022-08-14T19:01:01.528Z,1.30
2022-08-14T19:03:06.867Z,1.50
2022-08-14T19:05:09.433Z,1.40
2022-08-14T19:07:18.606Z,1.40
2022-08-14T19:09:52.371Z,1.30
2022-08-14T19:11:54.686Z,1.35
2022-08-14T19:13:57.359Z,1.80
2022-08-14T19:16:33.626Z,1.35
2022-08-14T19:18:47.639Z,1.30
2022-08-14T19:21:13.588Z,1.23
2022-08-14T19:23:21.383Z,1.50
2022-08-14T19:25:58.466Z,1.27
2022-08-14T19:28:31.241Z,1.40
2022-08-14T19:30:36.472Z,1.50
2022-08-14T19:32:40.289Z,1.45
2022-08-14T19:34:52.704Z,1.48
2022-08-14T19:37:06.155Z,1.65
2022-08-14T19:39:15.256Z,1.77
2022-08-14T19:41:21.089Z,1.60
2022-08-14T19:43:56.500Z,1.50
2022-08-14T19:45:55.234Z,1.25
2022-08-14T19:47:57.950Z,1.40
2022-08-14T19:50:24.378Z,1.48
2022-08-14T19:52:37.052Z,1.30
2022-08-14T19:54:44.380Z,1.70
2022-08-14T19:56:46.592Z,1.80
2022-08-14T19:58:54.024Z,1.48
2022-08-14T20:01:00.490Z,1.55
2022-08-14T20:03:14.221Z,1.88
2022-08-14T20:05:21.026Z,1.60
2022-08-14T20:07:59.711Z,1.70
2022-08-14T20:11:04.105Z,1.70
2022-08-14T20:12:34.505Z,1.60
2022-08-14T20:14:41.129Z,1.60
2022-08-14T20:17:03.266Z,1.70
2022-08-14T20:19:19.614Z,1.50
2022-08-14T20:21:23.774Z,1.53
2022-08-14T20:23:38.618Z,1.90
2022-08-14T20:25:57.180Z,1.60
2022-08-14T20:28:29.460Z,1.90
2022-08-14T20:30:36.441Z,1.60
2022-08-14T20:32:47.803Z,1.87
2022-08-14T20:34:54.414Z,2.03
2022-08-14T20:37:22.171Z,1.70
2022-08-14T20:39:27.022Z,1.67
2022-08-14T20:41:51.204Z,1.70
2022-08-14T20:44:20.713Z,1.70
2022-08-14T20:46:38.633Z,1.60
2022-08-14T20:48:50.957Z,1.63
2022-08-14T20:50:56.091Z,1.70
2022-08-14T20:52:59.945Z,1.90
2022-08-14T20:55:37.268Z,2.00
2022-08-14T20:57:44.682Z,1.80
2022-08-14T20:59:53.517Z,1.73
2022-08-14T21:02:46.824Z,1.67
2022-08-14T21:05:00.882Z,2.07
2022-08-14T21:07:25.305Z,1.83
2022-08-14T21:09:43.962Z,1.90
2022-08-14T21:12:06.313Z,2.07
2022-08-14T21:14:30.840Z,2.40
2022-08-14T21:16:39.856Z,2.27
2022-08-14T21:18:49.403Z,2.17
2022-08-14T21:20:54.289Z,2.20
2022-08-14T21:23:00.235Z,2.50
2022-08-14T21:25:08.771Z,2.30
2022-08-14T21:27:20.402Z,2.63
2022-08-14T21:29:25.235Z,2.47
2022-08-14T21:31:29.907Z,2.47
2022-08-14T21:33:35.242Z,3.03
2022-08-14T21:35:44.354Z,2.47
2022-08-14T21:37:47.666Z,2.60
2022-08-14T21:39:57.108Z,2.70
2022-08-14T21:42:04.550Z,2.50
2022-08-14T21:44:17.595Z,2.40
2022-08-14T21:46:22.148Z,2.37
2022-08-14T21:48:29.747Z,2.50
2022-08-14T21:50:59.883Z,3.10
2022-08-14T21:53:01.080Z,2.60
2022-08-14T21:55:12.315Z,2.60
2022-08-14T21:57:17.270Z,2.73
2022-08-14T21:59:24.458Z,2.60
2022-08-14T22:02:00.231Z,2.90
2022-08-14T22:03:59.340Z,2.93
2022-08-14T22:06:02.841Z,2.73
2022-08-14T22:08:06.471Z,3.20
2022-08-14T22:10:13.695Z,2.93
2022-08-14T22:12:57.785Z,3.20
2022-08-14T22:14:49.661Z,2.97
2022-08-14T22:17:01.851Z,3.20
2022-08-14T22:19:18.502Z,2.77
2022-08-14T22:21:24.397Z,3.00
2022-08-14T22:23:27.205Z,3.40
2022-08-14T22:25:33.472Z,3.40
2022-08-14T22:27:56.096Z,3.00
2022-08-14T22:30:03.043Z,3.17
2022-08-14T22:32:07.139Z,3.23
2022-08-14T22:34:11.548Z,3.07
2022-08-14T22:36:42.321Z,3.20
2022-08-14T22:38:49.757Z,3.43
2022-08-14T22:41:25.263Z,2.70
2022-08-14T22:43:15.303Z,2.80
2022-08-14T22:45:17.649Z,3.03
2022-08-14T22:47:25.097Z,2.83
2022-08-14T22:50:30.033Z,2.87
2022-08-14T22:51:51.588Z,3.23
2022-08-14T22:53:55.794Z,3.33
2022-08-14T22:56:01.156Z,3.23
2022-08-14T22:58:06.429Z,3.07
2022-08-14T23:00:13.371Z,3.07
2022-08-14T23:02:22.227Z,2.90
2022-08-14T23:04:35.016Z,3.70
2022-08-14T23:07:02.992Z,3.10
2022-08-14T23:09:34.897Z,3.10
2022-08-14T23:11:33.486Z,3.10
2022-08-14T23:13:38.950Z,3.00
2022-08-14T23:15:40.837Z,2.93
2022-08-14T23:17:45.171Z,3.17
2022-08-14T23:19:48.521Z,2.97
2022-08-14T23:21:59.470Z,2.90
2022-08-14T23:24:03.131Z,3.20
2022-08-14T23:26:48.148Z,2.80
2022-08-14T23:28:34.473Z,3.30
2022-08-14T23:30:55.686Z,2.80
2022-08-14T23:32:58.547Z,3.30
2022-08-14T23:35:00.879Z,3.07
2022-08-14T23:37:05.083Z,3.03
2022-08-14T23:39:12.228Z,3.23
2022-08-14T23:41:22.033Z,3.10
2022-08-14T23:43:24.372Z,3.00
2022-08-14T23:45:36.123Z,3.30
2022-08-14T23:47:51.765Z,3.37
2022-08-14T23:50:00.927Z,3.03
2022-08-14T23:52:50.215Z,2.97
2022-08-14T23:54:48.817Z,2.70
2022-08-14T23:56:50.307Z,3.03
2022-08-14T23:59:04.547Z,3.10
